createdAt,value
2019-01-27T00:00:27.973Z,979.27
2019-01-27T00:01:24.988Z,979.37
2019-01-27T00:02:22.020Z,979.31
2019-01-27T00:03:19.056Z,979.28
2019-01-27T00:04:16.097Z,979.26
2019-01-27T00:05:13.104Z,979.29
2019-01-27T00:06:10.125Z,979.26
2019-01-27T00:07:07.154Z,979.21
2019-01-27T00:08:04.172Z,979.12
2019-01-27T00:09:01.209Z,979.09
2019-01-27T00:09:58.241Z,979.11
2019-01-27T00:10:55.269Z,979.08
2019-01-27T00:11:52.293Z,979.02
2019-01-27T00:12:49.330Z,979.00
2019-01-27T00:13:46.356Z,979.02
2019-01-27T00:14:43.375Z,979.06
2019-01-27T00:15:40.396Z,979.01
2019-01-27T00:16:37.441Z,979.03
2019-01-27T00:17:34.603Z,978.96
2019-01-27T00:18:31.497Z,978.95
2019-01-27T00:19:28.632Z,978.98
2019-01-27T00:20:25.544Z,978.90
2019-01-27T00:21:22.625Z,978.92
2019-01-27T00:22:19.604Z,978.74
2019-01-27T00:23:16.610Z,978.77
2019-01-27T00:24:13.647Z,978.72
2019-01-27T00:25:10.682Z,978.78
2019-01-27T00:26:07.692Z,978.74
2019-01-27T00:27:04.734Z,978.73
2019-01-27T00:28:01.765Z,978.76
2019-01-27T00:28:58.831Z,978.71
2019-01-27T00:29:55.821Z,978.68
2019-01-27T00:30:52.860Z,978.65
2019-01-27T00:31:49.880Z,978.66
2019-01-27T00:32:46.904Z,978.61
2019-01-27T00:33:43.932Z,978.61
2019-01-27T00:34:40.993Z,978.59
2019-01-27T00:35:37.988Z,978.59
2019-01-27T00:36:35.006Z,978.52
2019-01-27T00:37:32.026Z,978.49
2019-01-27T00:38:29.062Z,978.48
2019-01-27T00:39:26.090Z,978.47
2019-01-27T00:40:24.120Z,978.43
2019-01-27T00:41:20.156Z,978.34
2019-01-27T00:42:17.217Z,978.36
2019-01-27T00:43:14.196Z,978.27
2019-01-27T00:44:11.226Z,978.28
2019-01-27T00:45:08.258Z,978.24
2019-01-27T00:46:05.295Z,978.27
2019-01-27T00:47:02.312Z,978.26
2019-01-27T00:47:59.338Z,978.20
2019-01-27T00:48:56.675Z,978.25
2019-01-27T00:49:54.389Z,978.14
2019-01-27T00:50:50.441Z,978.13
2019-01-27T00:51:47.460Z,978.13
2019-01-27T00:52:44.607Z,978.10
2019-01-27T00:53:41.516Z,978.10
2019-01-27T00:54:38.630Z,978.07
2019-01-27T00:55:35.562Z,978.06
2019-01-27T00:56:32.606Z,977.97
2019-01-27T00:57:29.618Z,977.97
2019-01-27T00:58:26.668Z,977.96
2019-01-27T00:59:23.669Z,977.90
2019-01-27T01:00:20.705Z,977.91
2019-01-27T01:01:17.735Z,977.82
2019-01-27T01:02:14.769Z,977.76
2019-01-27T01:03:11.786Z,977.72
2019-01-27T01:04:08.799Z,977.69
2019-01-27T01:05:05.836Z,977.76
2019-01-27T01:06:02.878Z,977.78
2019-01-27T01:06:59.882Z,977.77
2019-01-27T01:07:56.924Z,977.72
2019-01-27T01:08:53.948Z,977.70
2019-01-27T01:09:50.978Z,977.68
2019-01-27T01:10:47.999Z,977.63
2019-01-27T01:11:45.047Z,977.63
2019-01-27T01:12:42.052Z,977.66
2019-01-27T01:13:39.108Z,977.55
2019-01-27T01:14:36.116Z,977.59
2019-01-27T01:15:33.138Z,977.46
2019-01-27T01:16:30.172Z,977.49
2019-01-27T01:17:27.207Z,977.49
2019-01-27T01:18:24.227Z,977.47
2019-01-27T01:19:21.263Z,977.47
2019-01-27T01:20:18.279Z,977.46
2019-01-27T01:21:15.348Z,977.46
2019-01-27T01:22:12.331Z,977.48
2019-01-27T01:23:09.376Z,977.35
2019-01-27T01:24:06.382Z,977.40
2019-01-27T01:25:03.432Z,977.39
2019-01-27T01:26:00.435Z,977.37
2019-01-27T01:26:57.473Z,977.37
2019-01-27T01:27:54.616Z,977.33
2019-01-27T01:28:51.533Z,977.29
2019-01-27T01:29:48.558Z,977.31
2019-01-27T01:30:45.585Z,977.25
2019-01-27T01:31:42.627Z,977.23
2019-01-27T01:32:39.650Z,977.11
2019-01-27T01:33:36.681Z,977.15
2019-01-27T01:34:33.693Z,977.18
2019-01-27T01:35:30.731Z,977.17
2019-01-27T01:36:27.741Z,977.14
2019-01-27T01:37:24.819Z,977.14
2019-01-27T01:38:21.827Z,977.14
2019-01-27T01:39:18.832Z,977.10
2019-01-27T01:40:15.873Z,977.10
2019-01-27T01:41:12.903Z,976.96
2019-01-27T01:42:09.923Z,977.07
2019-01-27T01:43:06.940Z,976.99
2019-01-27T01:44:03.986Z,976.97
2019-01-27T01:45:01.001Z,977.00
2019-01-27T01:45:58.028Z,976.99
2019-01-27T01:46:55.047Z,976.92
2019-01-27T01:47:51.600Z,976.95
2019-01-27T01:48:49.116Z,976.92
2019-01-27T01:49:46.143Z,976.82
2019-01-27T01:50:43.170Z,976.83
2019-01-27T01:51:40.218Z,976.86
2019-01-27T01:52:37.233Z,976.78
2019-01-27T01:53:34.246Z,976.81
2019-01-27T01:54:31.305Z,976.84
2019-01-27T01:55:28.304Z,976.73
2019-01-27T01:56:25.340Z,976.63
2019-01-27T01:57:22.376Z,976.63
2019-01-27T01:58:19.387Z,976.62
2019-01-27T01:59:16.418Z,976.53
2019-01-27T02:00:13.440Z,976.59
2019-01-27T02:01:10.654Z,976.58
2019-01-27T02:02:07.504Z,976.56
2019-01-27T02:03:04.627Z,976.51
2019-01-27T02:04:01.559Z,976.49
2019-01-27T02:04:58.599Z,976.42
2019-01-27T02:05:55.613Z,976.34
2019-01-27T02:06:52.636Z,976.39
2019-01-27T02:07:49.666Z,976.34
2019-01-27T02:08:46.700Z,976.38
2019-01-27T02:09:43.723Z,976.38
2019-01-27T02:10:40.753Z,976.38
2019-01-27T02:11:38.596Z,976.36
2019-01-27T02:12:34.808Z,976.25
2019-01-27T02:13:31.835Z,976.31
2019-01-27T02:14:28.921Z,976.26
2019-01-27T02:15:25.892Z,976.26
2019-01-27T02:16:22.922Z,976.21
2019-01-27T02:17:20.008Z,976.18
2019-01-27T02:18:16.970Z,976.21
2019-01-27T02:19:20.945Z,976.19
2019-01-27T02:20:12.041Z,976.13
2019-01-27T02:21:08.077Z,976.06
2019-01-27T02:22:04.584Z,976.07
2019-01-27T02:23:02.098Z,976.08
2019-01-27T02:23:59.137Z,976.02
2019-01-27T02:24:56.170Z,976.02
2019-01-27T02:25:53.214Z,975.95
2019-01-27T02:26:50.222Z,975.97
2019-01-27T02:27:47.244Z,975.94
2019-01-27T02:28:44.276Z,975.97
2019-01-27T02:29:41.306Z,975.93
2019-01-27T02:30:38.344Z,975.79
2019-01-27T02:31:35.369Z,975.94
2019-01-27T02:32:32.384Z,975.92
2019-01-27T02:33:29.436Z,975.81
2019-01-27T02:34:26.441Z,975.91
2019-01-27T02:35:23.479Z,975.84
2019-01-27T02:36:20.609Z,975.82
2019-01-27T02:37:17.553Z,975.71
2019-01-27T02:38:14.596Z,975.74
2019-01-27T02:39:11.579Z,975.72
2019-01-27T02:40:08.622Z,975.65
2019-01-27T02:41:05.625Z,975.58
2019-01-27T02:42:02.664Z,975.52
2019-01-27T02:42:59.686Z,975.58
2019-01-27T02:43:56.721Z,975.56
2019-01-27T02:44:53.750Z,975.50
2019-01-27T02:45:50.792Z,975.38
2019-01-27T02:46:47.799Z,975.36
2019-01-27T02:47:44.827Z,975.25
2019-01-27T02:49:03.844Z,975.33
2019-01-27T02:49:38.885Z,975.31
2019-01-27T02:50:35.413Z,975.29
2019-01-27T02:51:32.928Z,975.25
2019-01-27T02:52:29.967Z,975.18
2019-01-27T02:53:26.992Z,975.12
2019-01-27T02:54:24.024Z,975.21
2019-01-27T02:55:21.050Z,975.20
2019-01-27T02:56:17.583Z,975.19
2019-01-27T02:57:15.106Z,975.15
2019-01-27T02:58:12.136Z,975.05
2019-01-27T02:59:09.164Z,975.02
2019-01-27T03:00:06.205Z,975.03
2019-01-27T03:01:03.209Z,974.99
2019-01-27T03:01:59.755Z,975.00
2019-01-27T03:02:57.282Z,974.96
2019-01-27T03:03:54.296Z,974.92
2019-01-27T03:04:51.333Z,974.97
2019-01-27T03:05:48.355Z,974.95
2019-01-27T03:06:45.389Z,974.84
2019-01-27T03:07:42.407Z,974.94
2019-01-27T03:08:40.436Z,974.94
2019-01-27T03:09:36.614Z,974.91
2019-01-27T03:10:33.499Z,974.93
2019-01-27T03:11:30.519Z,974.85
2019-01-27T03:12:27.536Z,974.85
2019-01-27T03:13:24.614Z,974.84
2019-01-27T03:14:21.609Z,974.79
2019-01-27T03:15:18.631Z,974.77
2019-01-27T03:16:15.667Z,974.88
2019-01-27T03:17:12.686Z,974.83
2019-01-27T03:18:09.716Z,974.84
2019-01-27T03:19:06.749Z,974.80
2019-01-27T03:20:03.830Z,974.67
2019-01-27T03:21:00.803Z,974.72
2019-01-27T03:21:57.822Z,974.71
2019-01-27T03:22:54.855Z,974.57
2019-01-27T03:23:51.880Z,974.67
2019-01-27T03:24:48.906Z,974.55
2019-01-27T03:25:45.936Z,974.55
2019-01-27T03:26:42.974Z,974.60
2019-01-27T03:27:39.996Z,974.56
2019-01-27T03:28:37.024Z,974.48
2019-01-27T03:29:34.069Z,974.43
2019-01-27T03:30:31.090Z,974.38
2019-01-27T03:31:28.115Z,974.30
2019-01-27T03:32:25.121Z,974.34
2019-01-27T03:33:22.159Z,974.37
2019-01-27T03:34:19.186Z,974.31
2019-01-27T03:35:16.225Z,974.36
2019-01-27T03:36:13.251Z,974.32
2019-01-27T03:37:10.274Z,974.31
2019-01-27T03:38:07.284Z,974.27
2019-01-27T03:39:04.331Z,974.36
2019-01-27T03:40:01.361Z,974.35
2019-01-27T03:40:58.383Z,974.32
2019-01-27T03:41:55.398Z,974.32
2019-01-27T03:42:52.425Z,974.31
2019-01-27T03:43:49.462Z,974.30
2019-01-27T03:44:46.619Z,974.25
2019-01-27T03:45:43.515Z,974.25
2019-01-27T03:46:40.610Z,974.20
2019-01-27T03:47:37.576Z,974.24
2019-01-27T03:48:35.601Z,974.25
2019-01-27T03:49:31.638Z,974.16
2019-01-27T03:50:28.659Z,974.22
2019-01-27T03:51:25.700Z,974.07
2019-01-27T03:52:22.698Z,974.06
2019-01-27T03:53:19.731Z,974.10
2019-01-27T03:54:16.753Z,974.08
2019-01-27T03:55:13.806Z,974.05
2019-01-27T03:56:10.818Z,973.99
2019-01-27T03:57:07.850Z,973.95
2019-01-27T03:58:04.881Z,973.88
2019-01-27T03:59:01.898Z,974.03
2019-01-27T03:59:58.945Z,974.01
2019-01-27T04:00:55.956Z,973.90
2019-01-27T04:01:52.976Z,974.01
2019-01-27T04:02:50.028Z,973.88
2019-01-27T04:03:47.028Z,973.84
2019-01-27T04:04:44.065Z,974.00
2019-01-27T04:05:41.107Z,973.87
2019-01-27T04:06:38.134Z,973.90
2019-01-27T04:07:35.141Z,973.83
2019-01-27T04:08:32.178Z,973.82
2019-01-27T04:09:29.224Z,973.77
2019-01-27T04:10:26.251Z,973.79
2019-01-27T04:11:23.245Z,973.76
2019-01-27T04:12:20.283Z,973.72
2019-01-27T04:13:17.318Z,973.74
2019-01-27T04:14:14.331Z,973.78
2019-01-27T04:15:11.380Z,973.79
2019-01-27T04:16:08.414Z,973.77
2019-01-27T04:17:05.425Z,973.68
2019-01-27T04:18:02.608Z,973.71
2019-01-27T04:18:59.497Z,973.69
2019-01-27T04:19:56.605Z,973.68
2019-01-27T04:20:53.530Z,973.62
2019-01-27T04:21:50.600Z,973.65
2019-01-27T04:22:47.580Z,973.61
2019-01-27T04:23:44.605Z,973.53
2019-01-27T04:24:41.648Z,973.54
2019-01-27T04:25:38.677Z,973.50
2019-01-27T04:26:35.699Z,973.48
2019-01-27T04:27:32.728Z,973.43
2019-01-27T04:28:29.759Z,973.41
2019-01-27T04:29:26.772Z,973.39
2019-01-27T04:30:23.801Z,973.40
2019-01-27T04:31:20.830Z,973.35
2019-01-27T04:32:17.867Z,973.39
2019-01-27T04:33:14.883Z,973.34
2019-01-27T04:34:11.921Z,973.34
2019-01-27T04:35:08.941Z,973.28
2019-01-27T04:36:05.989Z,973.26
2019-01-27T04:37:02.999Z,973.17
2019-01-27T04:38:00.026Z,973.23
2019-01-27T04:38:57.047Z,973.17
2019-01-27T04:39:54.071Z,973.16
2019-01-27T04:40:51.105Z,973.22
2019-01-27T04:41:48.134Z,973.14
2019-01-27T04:42:45.154Z,973.05
2019-01-27T04:43:42.198Z,973.15
2019-01-27T04:44:39.234Z,973.04
2019-01-27T04:45:36.250Z,973.14
2019-01-27T04:46:34.270Z,973.14
2019-01-27T04:47:30.306Z,973.07
2019-01-27T04:48:27.328Z,973.02
2019-01-27T04:49:24.348Z,972.96
2019-01-27T04:50:21.441Z,972.93
2019-01-27T04:51:18.409Z,972.89
2019-01-27T04:52:15.434Z,972.83
2019-01-27T04:53:12.624Z,972.83
2019-01-27T04:54:09.502Z,972.87
2019-01-27T04:55:06.609Z,972.89
2019-01-27T04:56:03.551Z,972.96
2019-01-27T04:57:00.606Z,972.92
2019-01-27T04:57:57.612Z,972.98
2019-01-27T04:58:54.639Z,972.93
2019-01-27T04:59:51.669Z,972.98
2019-01-27T05:00:48.692Z,973.03
2019-01-27T05:01:45.721Z,973.00
2019-01-27T05:02:42.738Z,972.96
2019-01-27T05:03:39.774Z,973.05
2019-01-27T05:04:36.808Z,973.03
2019-01-27T05:05:33.836Z,973.09
2019-01-27T05:06:31.858Z,972.97
2019-01-27T05:07:27.902Z,973.05
2019-01-27T05:08:24.916Z,972.97
2019-01-27T05:09:21.942Z,972.98
2019-01-27T05:10:18.973Z,972.96
2019-01-27T05:11:15.987Z,972.96
2019-01-27T05:12:13.028Z,972.90
2019-01-27T05:13:10.039Z,972.96
2019-01-27T05:14:07.087Z,972.92
2019-01-27T05:15:04.115Z,972.90
2019-01-27T05:16:01.125Z,972.86
2019-01-27T05:16:58.173Z,972.79
2019-01-27T05:17:55.200Z,972.84
2019-01-27T05:18:52.218Z,972.87
2019-01-27T05:19:49.288Z,972.79
2019-01-27T05:20:46.277Z,972.83
2019-01-27T05:21:43.288Z,972.81
2019-01-27T05:22:40.322Z,972.84
2019-01-27T05:23:37.353Z,972.79
2019-01-27T05:24:34.383Z,972.75
2019-01-27T05:25:31.421Z,972.71
2019-01-27T05:26:28.439Z,972.79
2019-01-27T05:27:25.534Z,972.81
2019-01-27T05:28:22.607Z,972.64
2019-01-27T05:29:19.524Z,972.77
2019-01-27T05:30:16.604Z,972.86
2019-01-27T05:31:13.575Z,972.82
2019-01-27T05:32:10.609Z,972.68
2019-01-27T05:33:07.626Z,972.60
2019-01-27T05:34:04.660Z,972.65
2019-01-27T05:35:01.686Z,972.56
2019-01-27T05:35:58.706Z,972.66
2019-01-27T05:36:55.739Z,972.53
2019-01-27T05:37:52.782Z,972.57
2019-01-27T05:38:49.787Z,972.52
2019-01-27T05:39:46.827Z,972.56
2019-01-27T05:40:43.850Z,972.50
2019-01-27T05:41:40.882Z,972.48
2019-01-27T05:42:37.923Z,972.49
2019-01-27T05:43:34.945Z,972.54
2019-01-27T05:44:31.961Z,972.60
2019-01-27T05:45:28.991Z,972.48
2019-01-27T05:46:26.020Z,972.56
2019-01-27T05:47:23.053Z,972.47
2019-01-27T05:48:20.085Z,972.47
2019-01-27T05:49:17.090Z,972.40
2019-01-27T05:50:14.130Z,972.43
2019-01-27T05:51:11.147Z,972.49
2019-01-27T05:52:08.178Z,972.41
2019-01-27T05:53:05.205Z,972.41
2019-01-27T05:54:02.237Z,972.39
2019-01-27T05:54:59.266Z,972.41
2019-01-27T05:55:56.302Z,972.44
2019-01-27T05:56:56.561Z,972.35
2019-01-27T05:57:50.374Z,972.32
2019-01-27T05:58:47.365Z,972.40
2019-01-27T05:59:44.397Z,972.28
2019-01-27T06:00:41.419Z,972.32
2019-01-27T06:01:38.609Z,972.34
2019-01-27T06:02:35.481Z,972.32
2019-01-27T06:03:32.649Z,972.34
2019-01-27T06:04:29.540Z,972.39
2019-01-27T06:05:26.563Z,972.34
2019-01-27T06:06:23.596Z,972.39
2019-01-27T06:07:20.127Z,972.31
2019-01-27T06:08:17.643Z,972.34
2019-01-27T06:09:14.664Z,972.35
2019-01-27T06:10:11.697Z,972.31
2019-01-27T06:11:08.716Z,972.30
2019-01-27T06:12:05.745Z,972.25
2019-01-27T06:13:02.802Z,972.26
2019-01-27T06:13:59.816Z,972.20
2019-01-27T06:14:56.837Z,972.27
2019-01-27T06:15:53.374Z,972.26
2019-01-27T06:16:50.405Z,972.19
2019-01-27T06:17:47.934Z,972.19
2019-01-27T06:18:44.961Z,972.22
2019-01-27T06:19:41.971Z,972.18
2019-01-27T06:20:39.014Z,972.14
2019-01-27T06:21:36.024Z,972.07
2019-01-27T06:22:33.067Z,972.15
2019-01-27T06:23:30.091Z,972.14
2019-01-27T06:24:27.113Z,972.04
2019-01-27T06:25:26.222Z,972.04
2019-01-27T06:26:21.193Z,972.02
2019-01-27T06:27:18.203Z,972.01
2019-01-27T06:28:15.217Z,972.01
2019-01-27T06:29:12.253Z,971.99
2019-01-27T06:30:09.281Z,971.91
2019-01-27T06:31:06.297Z,971.88
2019-01-27T06:32:02.849Z,971.93
2019-01-27T06:32:59.866Z,971.92
2019-01-27T06:33:57.396Z,971.92
2019-01-27T06:34:54.412Z,971.92
2019-01-27T06:35:51.449Z,971.87
2019-01-27T06:36:48.601Z,971.79
2019-01-27T06:37:45.505Z,971.84
2019-01-27T06:38:42.619Z,971.82
2019-01-27T06:39:39.060Z,971.78
2019-01-27T06:40:36.603Z,971.81
2019-01-27T06:41:33.610Z,971.84
2019-01-27T06:42:30.633Z,971.78
2019-01-27T06:43:27.659Z,971.70
2019-01-27T06:44:25.689Z,971.71
2019-01-27T06:45:21.719Z,971.71
2019-01-27T06:46:18.759Z,971.71
2019-01-27T06:47:15.778Z,971.69
2019-01-27T06:48:12.793Z,971.71
2019-01-27T06:49:09.828Z,971.70
2019-01-27T06:50:06.852Z,971.72
2019-01-27T06:51:03.870Z,971.73
2019-01-27T06:52:00.914Z,971.74
2019-01-27T06:52:57.935Z,971.65
2019-01-27T06:53:55.470Z,971.70
2019-01-27T06:54:51.991Z,971.61
2019-01-27T06:55:49.032Z,971.66
2019-01-27T06:56:45.559Z,971.68
2019-01-27T06:57:43.064Z,971.57
2019-01-27T06:58:40.102Z,971.61
2019-01-27T06:59:37.133Z,971.67
2019-01-27T07:00:34.152Z,971.59
2019-01-27T07:01:31.182Z,971.60
2019-01-27T07:02:29.607Z,971.61
2019-01-27T07:03:25.236Z,971.63
2019-01-27T07:04:22.281Z,971.62
2019-01-27T07:05:19.297Z,971.65
2019-01-27T07:06:16.323Z,971.65
2019-01-27T07:07:13.355Z,971.57
2019-01-27T07:08:10.362Z,971.63
2019-01-27T07:09:07.401Z,971.63
2019-01-27T07:10:04.422Z,971.57
2019-01-27T07:11:00.957Z,971.62
2019-01-27T07:11:58.603Z,971.62
2019-01-27T07:12:55.010Z,971.70
2019-01-27T07:13:52.604Z,971.59
2019-01-27T07:14:49.562Z,971.66
2019-01-27T07:15:46.611Z,971.59
2019-01-27T07:16:43.625Z,971.70
2019-01-27T07:17:40.153Z,971.64
2019-01-27T07:18:37.682Z,971.59
2019-01-27T07:19:34.707Z,971.65
2019-01-27T07:20:31.736Z,971.57
2019-01-27T07:21:28.762Z,971.57
2019-01-27T07:22:26.780Z,971.57
2019-01-27T07:23:22.812Z,971.61
2019-01-27T07:24:19.854Z,971.59
2019-01-27T07:25:16.379Z,971.74
2019-01-27T07:26:13.915Z,971.58
2019-01-27T07:27:10.917Z,971.62
2019-01-27T07:28:07.944Z,971.59
2019-01-27T07:29:04.983Z,971.65
2019-01-27T07:30:02.020Z,971.55
2019-01-27T07:30:59.046Z,971.58
2019-01-27T07:31:56.053Z,971.56
2019-01-27T07:32:52.590Z,971.63
2019-01-27T07:33:50.118Z,971.51
2019-01-27T07:34:47.159Z,971.52
2019-01-27T07:35:44.189Z,971.54
2019-01-27T07:36:41.203Z,971.53
2019-01-27T07:37:38.219Z,971.48
2019-01-27T07:38:35.249Z,971.44
2019-01-27T07:39:32.289Z,971.44
2019-01-27T07:40:29.319Z,971.45
2019-01-27T07:41:26.343Z,971.41
2019-01-27T07:42:23.363Z,971.39
2019-01-27T07:43:20.400Z,971.46
2019-01-27T07:44:17.433Z,971.38
2019-01-27T07:45:14.607Z,971.42
2019-01-27T07:46:11.497Z,971.44
2019-01-27T07:47:08.602Z,971.47
2019-01-27T07:48:05.536Z,971.35
2019-01-27T07:49:02.608Z,971.45
2019-01-27T07:49:59.619Z,971.45
2019-01-27T07:50:56.636Z,971.42
2019-01-27T07:51:53.650Z,971.45
2019-01-27T07:52:50.672Z,971.41
2019-01-27T07:53:47.710Z,971.43
2019-01-27T07:54:44.742Z,971.43
2019-01-27T07:55:41.267Z,971.42
2019-01-27T07:56:38.783Z,971.36
2019-01-27T07:57:35.812Z,971.29
2019-01-27T07:58:32.840Z,971.27
2019-01-27T07:59:29.864Z,971.27
2019-01-27T08:00:26.396Z,971.24
2019-01-27T08:01:23.908Z,971.22
2019-01-27T08:02:20.951Z,971.32
2019-01-27T08:03:17.975Z,971.24
2019-01-27T08:04:15.006Z,971.32
2019-01-27T08:05:12.025Z,971.18
2019-01-27T08:06:09.052Z,971.19
2019-01-27T08:07:06.093Z,971.14
2019-01-27T08:08:03.149Z,971.17
2019-01-27T08:09:00.129Z,971.13
2019-01-27T08:09:56.692Z,971.16
2019-01-27T08:10:54.192Z,971.15
2019-01-27T08:11:50.731Z,971.13
2019-01-27T08:12:48.252Z,971.15
2019-01-27T08:13:45.269Z,971.12
2019-01-27T08:14:42.322Z,971.05
2019-01-27T08:15:39.331Z,971.07
2019-01-27T08:16:36.357Z,971.05
2019-01-27T08:17:33.396Z,971.11
2019-01-27T08:18:30.431Z,971.03
2019-01-27T08:19:27.444Z,971.10
2019-01-27T08:20:24.466Z,971.10
2019-01-27T08:21:21.492Z,971.10
2019-01-27T08:22:18.643Z,971.05
2019-01-27T08:23:15.593Z,971.00
2019-01-27T08:24:12.086Z,970.98
2019-01-27T08:25:09.118Z,971.06
2019-01-27T08:26:06.634Z,971.10
2019-01-27T08:27:03.656Z,970.97
2019-01-27T08:28:00.702Z,971.00
2019-01-27T08:28:57.708Z,971.04
2019-01-27T08:29:54.742Z,970.97
2019-01-27T08:30:51.762Z,970.92
2019-01-27T08:31:48.799Z,971.03
2019-01-27T08:32:45.842Z,970.96
2019-01-27T08:33:42.851Z,970.94
2019-01-27T08:34:39.888Z,970.97
2019-01-27T08:35:36.907Z,970.94
2019-01-27T08:36:33.928Z,970.88
2019-01-27T08:37:30.965Z,970.91
2019-01-27T08:38:27.988Z,970.91
2019-01-27T08:39:25.017Z,970.89
2019-01-27T08:40:22.043Z,970.94
2019-01-27T08:41:19.080Z,970.94
2019-01-27T08:42:16.104Z,970.86
2019-01-27T08:43:13.123Z,970.86
2019-01-27T08:44:10.154Z,970.78
2019-01-27T08:45:07.174Z,970.77
2019-01-27T08:46:04.213Z,970.81
2019-01-27T08:47:01.241Z,970.84
2019-01-27T08:47:58.268Z,970.81
2019-01-27T08:48:55.296Z,970.79
2019-01-27T08:49:52.350Z,970.81
2019-01-27T08:50:49.346Z,970.83
2019-01-27T08:51:46.376Z,970.80
2019-01-27T08:52:42.906Z,970.76
2019-01-27T08:53:40.423Z,970.80
2019-01-27T08:54:37.453Z,970.82
2019-01-27T08:55:34.604Z,970.72
2019-01-27T08:56:31.516Z,970.74
2019-01-27T08:57:28.610Z,970.61
2019-01-27T08:58:25.575Z,970.76
2019-01-27T08:59:22.601Z,970.67
2019-01-27T09:00:19.644Z,970.69
2019-01-27T09:01:16.671Z,970.62
2019-01-27T09:02:13.683Z,970.62
2019-01-27T09:03:11.179Z,970.59
2019-01-27T09:04:07.742Z,970.61
2019-01-27T09:05:04.763Z,970.56
2019-01-27T09:06:01.794Z,970.63
2019-01-27T09:06:58.831Z,970.60
2019-01-27T09:07:55.848Z,970.55
2019-01-27T09:08:52.881Z,970.61
2019-01-27T09:09:49.909Z,970.56
2019-01-27T09:10:47.920Z,970.57
2019-01-27T09:11:43.984Z,970.56
2019-01-27T09:12:40.494Z,970.55
2019-01-27T09:13:38.040Z,970.49
2019-01-27T09:14:35.032Z,970.57
2019-01-27T09:15:32.065Z,970.57
2019-01-27T09:16:29.093Z,970.59
2019-01-27T09:17:26.131Z,970.51
2019-01-27T09:18:23.151Z,970.49
2019-01-27T09:19:20.192Z,970.42
2019-01-27T09:20:18.223Z,970.53
2019-01-27T09:21:14.248Z,970.53
2019-01-27T09:22:11.271Z,970.48
2019-01-27T09:23:08.275Z,970.54
2019-01-27T09:24:05.315Z,970.47
2019-01-27T09:25:02.345Z,970.44
2019-01-27T09:25:59.372Z,970.46
2019-01-27T09:26:56.385Z,970.51
2019-01-27T09:27:53.424Z,970.39
2019-01-27T09:28:51.186Z,970.42
2019-01-27T09:29:47.485Z,970.34
2019-01-27T09:30:44.608Z,970.36
2019-01-27T09:31:41.545Z,970.30
2019-01-27T09:32:38.606Z,970.35
2019-01-27T09:33:35.587Z,970.35
2019-01-27T09:34:32.624Z,970.27
2019-01-27T09:35:29.642Z,970.36
2019-01-27T09:36:26.688Z,970.31
2019-01-27T09:37:23.705Z,970.27
2019-01-27T09:38:20.723Z,970.27
2019-01-27T09:39:17.756Z,970.29
2019-01-27T09:40:14.777Z,970.28
2019-01-27T09:41:11.812Z,970.26
2019-01-27T09:42:08.834Z,970.21
2019-01-27T09:43:05.851Z,970.21
2019-01-27T09:44:02.897Z,970.34
2019-01-27T09:44:59.924Z,970.19
2019-01-27T09:46:05.244Z,970.19
2019-01-27T09:46:53.972Z,970.28
2019-01-27T09:47:50.998Z,970.22
2019-01-27T09:48:49.021Z,970.18
2019-01-27T09:49:45.061Z,970.15
2019-01-27T09:50:41.614Z,970.14
2019-01-27T09:51:39.122Z,970.18
2019-01-27T09:52:36.163Z,970.21
2019-01-27T09:53:33.161Z,970.17
2019-01-27T09:54:30.196Z,970.16
2019-01-27T09:55:27.210Z,970.11
2019-01-27T09:56:24.256Z,970.10
2019-01-27T09:57:21.276Z,970.15
2019-01-27T09:58:18.305Z,970.05
2019-01-27T09:59:16.332Z,970.07
2019-01-27T10:00:12.361Z,970.16
2019-01-27T10:01:09.985Z,970.09
2019-01-27T10:02:06.417Z,970.08
2019-01-27T10:03:03.435Z,970.06
2019-01-27T10:04:00.616Z,970.09
2019-01-27T10:04:57.504Z,970.17
2019-01-27T10:05:54.614Z,970.14
2019-01-27T10:06:51.069Z,970.22
2019-01-27T10:07:48.615Z,970.30
2019-01-27T10:08:46.624Z,970.17
2019-01-27T10:09:42.637Z,970.17
2019-01-27T10:10:39.669Z,970.02
2019-01-27T10:11:36.670Z,970.04
2019-01-27T10:12:33.707Z,970.19
2019-01-27T10:13:30.735Z,970.03
2019-01-27T10:14:27.770Z,970.08
2019-01-27T10:15:24.803Z,970.02
2019-01-27T10:16:21.823Z,970.04
2019-01-27T10:17:18.838Z,969.98
2019-01-27T10:18:15.873Z,970.06
2019-01-27T10:19:12.904Z,970.10
2019-01-27T10:20:09.937Z,970.05
2019-01-27T10:21:06.946Z,970.02
2019-01-27T10:22:03.981Z,970.10
2019-01-27T10:23:01.003Z,970.05
2019-01-27T10:23:58.037Z,970.06
2019-01-27T10:24:55.077Z,970.16
2019-01-27T10:25:52.095Z,970.12
2019-01-27T10:26:49.128Z,970.04
2019-01-27T10:27:46.153Z,969.79
2019-01-27T10:28:43.174Z,969.77
2019-01-27T10:29:40.213Z,969.76
2019-01-27T10:30:37.242Z,969.90
2019-01-27T10:31:34.247Z,969.92
2019-01-27T10:32:31.274Z,969.87
2019-01-27T10:33:28.310Z,969.78
2019-01-27T10:34:25.339Z,969.82
2019-01-27T10:35:22.423Z,969.69
2019-01-27T10:36:19.396Z,969.66
2019-01-27T10:37:16.425Z,969.63
2019-01-27T10:38:13.448Z,969.61
2019-01-27T10:39:10.605Z,969.64
2019-01-27T10:40:09.097Z,969.67
2019-01-27T10:41:04.549Z,969.74
2019-01-27T10:42:01.549Z,969.91
2019-01-27T10:42:58.613Z,969.87
2019-01-27T10:43:55.603Z,969.90
2019-01-27T10:44:52.669Z,969.91
2019-01-27T10:45:49.972Z,969.91
2019-01-27T10:46:46.698Z,969.89
2019-01-27T10:47:43.729Z,969.82
2019-01-27T10:48:40.741Z,969.79
2019-01-27T10:49:37.772Z,969.89
2019-01-27T10:50:34.817Z,969.87
2019-01-27T10:51:31.832Z,969.89
2019-01-27T10:52:28.857Z,969.89
2019-01-27T10:53:25.883Z,969.89
2019-01-27T10:54:22.415Z,969.85
2019-01-27T10:55:19.942Z,969.85
2019-01-27T10:56:16.989Z,969.92
2019-01-27T10:57:13.996Z,969.91
2019-01-27T10:58:11.074Z,970.03
2019-01-27T10:59:08.051Z,969.98
2019-01-27T11:00:05.078Z,969.97
2019-01-27T11:01:02.091Z,969.88
2019-01-27T11:01:59.140Z,969.89
2019-01-27T11:02:56.159Z,969.86
2019-01-27T11:03:53.182Z,969.76
2019-01-27T11:04:50.211Z,969.75
2019-01-27T11:05:47.242Z,969.73
2019-01-27T11:06:44.277Z,969.68
2019-01-27T11:07:41.296Z,969.61
2019-01-27T11:08:38.320Z,969.60
2019-01-27T11:09:35.336Z,969.59
2019-01-27T11:10:32.373Z,969.57
2019-01-27T11:11:28.917Z,969.64
2019-01-27T11:12:26.444Z,969.61
2019-01-27T11:13:23.453Z,969.55
2019-01-27T11:14:20.626Z,969.50
2019-01-27T11:15:17.560Z,969.42
2019-01-27T11:16:14.604Z,969.35
2019-01-27T11:17:11.579Z,969.38
2019-01-27T11:18:08.618Z,969.39
2019-01-27T11:19:05.610Z,969.22
2019-01-27T11:20:02.663Z,969.32
2019-01-27T11:20:59.663Z,969.42
2019-01-27T11:21:56.707Z,969.42
2019-01-27T11:22:53.731Z,969.48
2019-01-27T11:23:50.753Z,969.45
2019-01-27T11:24:47.785Z,969.42
2019-01-27T11:25:44.804Z,969.50
2019-01-27T11:26:41.828Z,969.51
2019-01-27T11:27:38.374Z,969.46
2019-01-27T11:28:35.395Z,969.40
2019-01-27T11:29:32.932Z,969.47
2019-01-27T11:30:29.935Z,969.47
2019-01-27T11:31:26.975Z,969.38
2019-01-27T11:32:24.005Z,969.43
2019-01-27T11:33:21.027Z,969.40
2019-01-27T11:34:18.062Z,969.34
2019-01-27T11:35:14.581Z,969.34
2019-01-27T11:36:12.127Z,969.30
2019-01-27T11:37:10.097Z,969.16
2019-01-27T11:38:06.156Z,969.11
2019-01-27T11:39:03.200Z,969.09
2019-01-27T11:40:00.274Z,968.97
2019-01-27T11:40:57.246Z,968.78
2019-01-27T11:41:54.272Z,968.89
2019-01-27T11:42:51.302Z,968.94
2019-01-27T11:43:48.328Z,969.02
2019-01-27T11:44:45.356Z,969.08
2019-01-27T11:45:42.394Z,969.19
2019-01-27T11:46:39.402Z,969.19
2019-01-27T11:47:36.432Z,969.21
2019-01-27T11:48:33.463Z,969.20
2019-01-27T11:49:30.002Z,969.22
2019-01-27T11:50:27.543Z,969.29
2019-01-27T11:51:24.625Z,969.22